sensor_id;sensor_type;location;lat;lon;timestamp;pressure;altitude;pressure_sealevel;temperature;humidity
42003;BME280;27693;50.506;30.832;2022-11-15T00:00:18;100717.03;;;5.48;79.88
42003;BME280;27693;50.506;30.832;2022-11-15T00:01:40;100711.92;;;5.41;80.30
42003;BME280;27693;50.506;30.832;2022-11-15T00:03:01;100708.48;;;5.42;80.12
42003;BME280;27693;50.506;30.832;2022-11-15T00:04:21;100715.48;;;5.28;80.84
42003;BME280;27693;50.506;30.832;2022-11-15T00:05:42;100711.11;;;5.36;80.77
42003;BME280;27693;50.506;30.832;2022-11-15T00:07:03;100710.28;;;5.33;80.40
42003;BME280;27693;50.506;30.832;2022-11-15T00:08:24;100711.98;;;5.32;80.36
42003;BME280;27693;50.506;30.832;2022-11-15T00:09:47;100716.27;;;5.36;80.55
42003;BME280;27693;50.506;30.832;2022-11-15T00:11:10;100712.00;;;5.34;80.63
42003;BME280;27693;50.506;30.832;2022-11-15T00:12:31;100707.70;;;5.33;80.84
42003;BME280;27693;50.506;30.832;2022-11-15T00:15:24;100699.91;;;5.39;80.96
42003;BME280;27693;50.506;30.832;2022-11-15T00:16:45;100705.17;;;5.26;80.66
42003;BME280;27693;50.506;30.832;2022-11-15T00:18:10;100698.29;;;5.28;80.53
42003;BME280;27693;50.506;30.832;2022-11-15T00:19:28;100687.92;;;5.32;80.42
42003;BME280;27693;50.506;30.832;2022-11-15T00:20:49;100687.92;;;5.32;80.33
42003;BME280;27693;50.506;30.832;2022-11-15T00:22:09;100687.92;;;5.32;80.24
42003;BME280;27693;50.506;30.832;2022-11-15T00:23:29;100682.04;;;5.16;80.15
42003;BME280;27693;50.506;30.832;2022-11-15T00:24:51;100678.59;;;5.17;80.81
42003;BME280;27693;50.506;30.832;2022-11-15T00:26:13;100682.83;;;5.22;80.89
42003;BME280;27693;50.506;30.832;2022-11-15T00:27:34;100675.93;;;5.27;80.59
42003;BME280;27693;50.506;30.832;2022-11-15T00:28:55;100673.38;;;5.23;80.11
42003;BME280;27693;50.506;30.832;2022-11-15T00:30:15;100663.93;;;5.22;80.11
42003;BME280;27693;50.506;30.832;2022-11-15T00:31:36;100658.90;;;5.08;80.69
42003;BME280;27693;50.506;30.832;2022-11-15T00:33:06;100656.28;;;5.11;80.65
42003;BME280;27693;50.506;30.832;2022-11-15T00:34:24;100661.48;;;5.05;80.82
42003;BME280;27693;50.506;30.832;2022-11-15T00:35:44;100653.69;;;5.14;80.86
42003;BME280;27693;50.506;30.832;2022-11-15T00:37:06;100659.70;;;5.11;80.79
42003;BME280;27693;50.506;30.832;2022-11-15T00:38:36;100656.22;;;5.17;80.70
42003;BME280;27693;50.506;30.832;2022-11-15T00:39:54;100655.30;;;5.24;80.39
42003;BME280;27693;50.506;30.832;2022-11-15T00:41:14;100660.52;;;5.18;80.28
42003;BME280;27693;50.506;30.832;2022-11-15T00:42:35;100646.77;;;5.16;80.61
42003;BME280;27693;50.506;30.832;2022-11-15T00:43:56;100644.24;;;5.10;80.64
42003;BME280;27693;50.506;30.832;2022-11-15T00:45:16;100645.16;;;5.06;81.91
42003;BME280;27693;50.506;30.832;2022-11-15T00:46:37;100649.48;;;5.02;81.70
42003;BME280;27693;50.506;30.832;2022-11-15T00:47:57;100648.59;;;5.05;81.65
42003;BME280;27693;50.506;30.832;2022-11-15T00:49:19;100648.54;;;5.11;81.62
42003;BME280;27693;50.506;30.832;2022-11-15T00:50:40;100653.69;;;5.14;81.52
42003;BME280;27693;50.506;30.832;2022-11-15T00:52:01;100648.48;;;5.17;81.23
42003;BME280;27693;50.506;30.832;2022-11-15T00:53:21;100648.47;;;5.20;81.26
42003;BME280;27693;50.506;30.832;2022-11-15T00:54:42;100653.64;;;5.17;81.64
42003;BME280;27693;50.506;30.832;2022-11-15T00:56:03;100651.97;;;5.13;81.62
42003;BME280;27693;50.506;30.832;2022-11-15T00:57:24;100649.37;;;5.15;81.71
42003;BME280;27693;50.506;30.832;2022-11-15T00:58:44;100656.28;;;5.11;81.98
42003;BME280;27693;50.506;30.832;2022-11-15T01:00:08;100657.25;;;4.98;81.90
42003;BME280;27693;50.506;30.832;2022-11-15T01:01:29;100650.28;;;5.07;82.23
42003;BME280;27693;50.506;30.832;2022-11-15T01:02:50;100642.59;;;5.04;82.04
42003;BME280;27693;50.506;30.832;2022-11-15T01:04:10;100643.55;;;4.89;82.64
42003;BME280;27693;50.506;30.832;2022-11-15T01:05:31;100636.61;;;4.98;82.87
42003;BME280;27693;50.506;30.832;2022-11-15T01:06:51;100639.16;;;5.02;83.04
42003;BME280;27693;50.506;30.832;2022-11-15T01:08:13;100640.94;;;4.94;83.19
42003;BME280;27693;50.506;30.832;2022-11-15T01:09:34;100631.51;;;4.91;83.13
42003;BME280;27693;50.506;30.832;2022-11-15T01:10:54;100627.16;;;4.96;83.23
42003;BME280;27693;50.506;30.832;2022-11-15T01:12:17;100626.40;;;4.85;83.21
42003;BME280;27693;50.506;30.832;2022-11-15T01:13:39;100621.30;;;4.79;83.70
42003;BME280;27693;50.506;30.832;2022-11-15T01:15:01;100618.72;;;4.79;83.43
42003;BME280;27693;50.506;30.832;2022-11-15T01:16:22;100621.34;;;4.70;83.75
42003;BME280;27693;50.506;30.832;2022-11-15T01:17:42;100622.25;;;4.66;84.02
42003;BME280;27693;50.506;30.832;2022-11-15T01:19:03;100617.92;;;4.68;84.66
42003;BME280;27693;50.506;30.832;2022-11-15T01:20:24;100616.24;;;4.63;84.55
42003;BME280;27693;50.506;30.832;2022-11-15T01:21:44;100616.31;;;4.53;84.23
42003;BME280;27693;50.506;30.832;2022-11-15T01:23:05;100620.56;;;4.57;84.94
42003;BME280;27693;50.506;30.832;2022-11-15T01:24:25;100617.09;;;4.66;85.13
42003;BME280;27693;50.506;30.832;2022-11-15T01:25:46;100621.39;;;4.63;84.39
42003;BME280;27693;50.506;30.832;2022-11-15T01:27:06;100610.22;;;4.64;83.92
42003;BME280;27693;50.506;30.832;2022-11-15T01:28:35;100611.88;;;4.70;84.09
42003;BME280;27693;50.506;30.832;2022-11-15T01:29:57;100604.99;;;4.75;84.21
42003;BME280;27693;50.506;30.832;2022-11-15T01:31:19;100615.23;;;4.86;83.90
42003;BME280;27693;50.506;30.832;2022-11-15T01:32:40;100616.87;;;4.92;84.00
42003;BME280;27693;50.506;30.832;2022-11-15T01:34:01;100617.67;;;5.00;82.87
42003;BME280;27693;50.506;30.832;2022-11-15T01:35:21;100611.67;;;5.00;82.77
42003;BME280;27693;50.506;30.832;2022-11-15T01:36:42;100603.84;;;5.09;81.90
42003;BME280;27693;50.506;30.832;2022-11-15T01:38:03;100602.92;;;5.18;81.51
42003;BME280;27693;50.506;30.832;2022-11-15T01:39:23;100606.27;;;5.27;81.15
42003;BME280;27693;50.506;30.832;2022-11-15T01:40:44;100595.02;;;5.35;80.71
42003;BME280;27693;50.506;30.832;2022-11-15T01:42:05;100592.30;;;5.47;80.01
42003;BME280;27693;50.506;30.832;2022-11-15T01:43:29;100583.63;;;5.54;79.70
42003;BME280;27693;50.506;30.832;2022-11-15T01:44:51;100588.73;;;5.59;79.95
42003;BME280;27693;50.506;30.832;2022-11-15T01:47:46;100588.73;;;5.59;78.64
42003;BME280;27693;50.506;30.832;2022-11-15T01:49:17;100579.25;;;5.59;78.50
42003;BME280;27693;50.506;30.832;2022-11-15T01:50:39;100593.08;;;5.55;79.17
42003;BME280;27693;50.506;30.832;2022-11-15T01:52:02;100589.67;;;5.50;79.58
42003;BME280;27693;50.506;30.832;2022-11-15T01:53:25;100581.94;;;5.52;79.37
42003;BME280;27693;50.506;30.832;2022-11-15T01:54:48;100579.25;;;5.59;78.79
42003;BME280;27693;50.506;30.832;2022-11-15T01:56:19;100579.42;;;5.44;79.13
42003;BME280;27693;50.506;30.832;2022-11-15T01:57:42;100579.42;;;5.44;80.09
42003;BME280;27693;50.506;30.832;2022-11-15T01:59:06;100574.23;;;5.47;79.97
42003;BME280;27693;50.506;30.832;2022-11-15T02:00:29;100577.61;;;5.52;79.41
42003;BME280;27693;50.506;30.832;2022-11-15T02:01:50;100574.12;;;5.58;78.38
42003;BME280;27693;50.506;30.832;2022-11-15T02:03:12;100572.36;;;5.62;77.92
42003;BME280;27693;50.506;30.832;2022-11-15T02:04:36;100565.41;;;5.67;78.10
42003;BME280;27693;50.506;30.832;2022-11-15T02:05:57;100567.22;;;5.58;78.08
42003;BME280;27693;50.506;30.832;2022-11-15T02:07:20;100557.88;;;5.48;78.79
42003;BME280;27693;50.506;30.832;2022-11-15T02:08:42;100563.93;;;5.44;78.48
42003;BME280;27693;50.506;30.832;2022-11-15T02:10:10;100568.45;;;5.23;78.63
42003;BME280;27693;50.506;30.832;2022-11-15T02:11:31;100565.80;;;5.30;79.70
42003;BME280;27693;50.506;30.832;2022-11-15T02:12:52;100562.28;;;5.37;79.13
42003;BME280;27693;50.506;30.832;2022-11-15T02:14:16;100560.64;;;5.30;78.80
42003;BME280;27693;50.506;30.832;2022-11-15T02:15:44;100565.09;;;5.15;78.79
42003;BME280;27693;50.506;30.832;2022-11-15T02:18:59;100562.50;;;5.15;80.24
42003;BME280;27693;50.506;30.832;2022-11-15T02:20:44;100558.96;;;5.28;79.82
42003;BME280;27693;50.506;30.832;2022-11-15T02:30:18;100558.26;;;5.11;80.80
42003;BME280;27693;50.506;30.832;2022-11-15T02:33:35;100548.67;;;5.22;79.79
42003;BME280;27693;50.506;30.832;2022-11-15T02:36:41;100554.03;;;5.04;80.39
42003;BME280;27693;50.506;30.832;2022-11-15T02:38:16;100552.19;;;5.15;80.65
42003;BME280;27693;50.506;30.832;2022-11-15T02:41:23;100555.66;;;5.14;80.36
42003;BME280;27693;50.506;30.832;2022-11-15T02:42:46;100555.64;;;5.16;80.88
42003;BME280;27693;50.506;30.832;2022-11-15T02:45:35;100555.53;;;5.26;81.38
42003;BME280;27693;50.506;30.832;2022-11-15T02:47:01;100547.83;;;5.22;80.61
42003;BME280;27693;50.506;30.832;2022-11-15T02:48:24;100546.14;;;5.19;80.33
42003;BME280;27693;50.506;30.832;2022-11-15T02:49:53;100541.94;;;5.09;80.28
42003;BME280;27693;50.506;30.832;2022-11-15T02:51:16;100541.87;;;5.15;80.70
42003;BME280;27693;50.506;30.832;2022-11-15T02:52:36;100543.58;;;5.16;81.05
42003;BME280;27693;50.506;30.832;2022-11-15T02:53:57;100536.76;;;5.12;80.67
42003;BME280;27693;50.506;30.832;2022-11-15T02:55:30;100539.29;;;5.15;80.60
42003;BME280;27693;50.506;30.832;2022-11-15T02:56:54;100534.18;;;5.12;80.72
42003;BME280;27693;50.506;30.832;2022-11-15T02:58:36;100536.78;;;5.10;81.69
42003;BME280;27693;50.506;30.832;2022-11-15T03:00:09;100527.29;;;5.14;81.98
42003;BME280;27693;50.506;30.832;2022-11-15T03:07:03;100519.72;;;4.95;81.97
42003;BME280;27693;50.506;30.832;2022-11-15T03:08:31;100511.17;;;4.90;82.33
42003;BME280;27693;50.506;30.832;2022-11-15T03:09:59;100513.73;;;4.93;82.49
42003;BME280;27693;50.506;30.832;2022-11-15T03:11:20;100508.73;;;4.75;82.09
42003;BME280;27693;50.506;30.832;2022-11-15T03:12:57;100513.12;;;4.67;82.21
42003;BME280;27693;50.506;30.832;2022-11-15T03:14:33;100510.58;;;4.60;82.65
42003;BME280;27693;50.506;30.832;2022-11-15T03:16:03;100508.00;;;4.60;82.99
42003;BME280;27693;50.506;30.832;2022-11-15T03:17:38;100504.55;;;4.64;83.05
42003;BME280;27693;50.506;30.832;2022-11-15T03:20:50;100506.31;;;4.59;83.31
42003;BME280;27693;50.506;30.832;2022-11-15T03:22:16;100495.97;;;4.62;83.40
42003;BME280;27693;50.506;30.832;2022-11-15T03:23:39;100498.46;;;4.70;83.41
42003;BME280;27693;50.506;30.832;2022-11-15T03:25:04;100495.10;;;4.63;83.00
42003;BME280;27693;50.506;30.832;2022-11-15T03:26:25;100491.67;;;4.61;83.09
42003;BME280;27693;50.506;30.832;2022-11-15T03:27:49;100494.19;;;4.68;83.58
42003;BME280;27693;50.506;30.832;2022-11-15T03:29:28;100500.11;;;4.77;84.05
42003;BME280;27693;50.506;30.832;2022-11-15T03:30:50;100495.83;;;4.78;83.69
42003;BME280;27693;50.506;30.832;2022-11-15T03:32:18;100497.55;;;4.79;83.45
42003;BME280;27693;50.506;30.832;2022-11-15T03:33:38;100497.50;;;4.82;83.24
42003;BME280;27693;50.506;30.832;2022-11-15T03:36:27;100491.45;;;4.85;83.24
42003;BME280;27693;50.506;30.832;2022-11-15T03:39:14;100488.13;;;4.76;82.87
42003;BME280;27693;50.506;30.832;2022-11-15T03:40:39;100485.55;;;4.76;82.98
42003;BME280;27693;50.506;30.832;2022-11-15T03:44:59;100477.02;;;4.68;83.10
42003;BME280;27693;50.506;30.832;2022-11-15T03:46:36;100477.02;;;4.68;83.43
42003;BME280;27693;50.506;30.832;2022-11-15T03:48:10;100477.06;;;4.63;82.75
42003;BME280;27693;50.506;30.832;2022-11-15T03:49:31;100471.11;;;4.55;83.29
42003;BME280;27693;50.506;30.832;2022-11-15T03:50:53;100470.23;;;4.59;83.92
42003;BME280;27693;50.506;30.832;2022-11-15T03:52:19;100471.91;;;4.63;84.31
42003;BME280;27693;50.506;30.832;2022-11-15T03:53:41;100467.63;;;4.61;83.67
42003;BME280;27693;50.506;30.832;2022-11-15T03:55:05;100459.94;;;4.56;83.34
42003;BME280;27693;50.506;30.832;2022-11-15T03:56:26;100462.49;;;4.58;83.29
42003;BME280;27693;50.506;30.832;2022-11-15T03:57:52;100465.16;;;4.50;83.50
42003;BME280;27693;50.506;30.832;2022-11-15T03:59:14;100460.84;;;4.51;83.81
42003;BME280;27693;50.506;30.832;2022-11-15T04:00:35;100465.11;;;4.53;83.86
42003;BME280;27693;50.506;30.832;2022-11-15T04:01:55;100463.38;;;4.55;84.17
42003;BME280;27693;50.506;30.832;2022-11-15T04:03:16;100466.73;;;4.67;84.70
42003;BME280;27693;50.506;30.832;2022-11-15T04:04:36;100460.77;;;4.60;83.69
42003;BME280;27693;50.506;30.832;2022-11-15T04:05:57;100470.19;;;4.62;84.18
42003;BME280;27693;50.506;30.832;2022-11-15T04:07:17;100454.65;;;4.72;85.31
42003;BME280;27693;50.506;30.832;2022-11-15T04:08:38;100462.38;;;4.72;83.94
42003;BME280;27693;50.506;30.832;2022-11-15T04:09:59;100463.25;;;4.71;83.90
42003;BME280;27693;50.506;30.832;2022-11-15T04:11:20;100463.20;;;4.74;84.53
42003;BME280;27693;50.506;30.832;2022-11-15T04:12:44;100466.61;;;4.79;84.12
42003;BME280;27693;50.506;30.832;2022-11-15T04:14:05;100456.36;;;4.73;83.71
42003;BME280;27693;50.506;30.832;2022-11-15T04:15:27;100459.80;;;4.72;83.74
42003;BME280;27693;50.506;30.832;2022-11-15T04:16:48;100454.65;;;4.72;84.01
42003;BME280;27693;50.506;30.832;2022-11-15T04:18:10;100458.98;;;4.68;84.13
42003;BME280;27693;50.506;30.832;2022-11-15T04:19:31;100452.94;;;4.71;84.28
42003;BME280;27693;50.506;30.832;2022-11-15T04:20:51;100451.18;;;4.74;84.20
42003;BME280;27693;50.506;30.832;2022-11-15T04:22:12;100445.95;;;4.84;84.08
42003;BME280;27693;50.506;30.832;2022-11-15T04:23:33;100445.09;;;4.82;83.66
42003;BME280;27693;50.506;30.832;2022-11-15T04:24:54;100450.27;;;4.78;83.43
42003;BME280;27693;50.506;30.832;2022-11-15T04:26:21;100442.49;;;4.83;83.74
42003;BME280;27693;50.506;30.832;2022-11-15T04:27:39;100435.67;;;4.79;83.46
42003;BME280;27693;50.506;30.832;2022-11-15T04:29:00;100436.64;;;4.67;84.02
42003;BME280;27693;50.506;30.832;2022-11-15T04:30:21;100435.09;;;4.49;83.81
42003;BME280;27693;50.506;30.832;2022-11-15T04:31:41;100430.85;;;4.45;84.29
42003;BME280;27693;50.506;30.832;2022-11-15T04:33:03;100435.06;;;4.54;84.85
42003;BME280;27693;50.506;30.832;2022-11-15T04:34:24;100429.81;;;4.61;85.21
42003;BME280;27693;50.506;30.832;2022-11-15T04:35:45;100427.17;;;4.68;84.48
42003;BME280;27693;50.506;30.832;2022-11-15T04:37:05;100429.78;;;4.66;83.94
42003;BME280;27693;50.506;30.832;2022-11-15T04:38:26;100429.77;;;4.69;84.03
42003;BME280;27693;50.506;30.832;2022-11-15T04:39:46;100434.91;;;4.69;84.12
42003;BME280;27693;50.506;30.832;2022-11-15T04:41:07;100430.65;;;4.67;83.89
42003;BME280;27693;50.506;30.832;2022-11-15T04:42:28;100436.69;;;4.62;83.77
42003;BME280;27693;50.506;30.832;2022-11-15T04:43:50;100430.73;;;4.57;83.73
42003;BME280;27693;50.506;30.832;2022-11-15T04:45:11;100422.00;;;4.71;84.83
42003;BME280;27693;50.506;30.832;2022-11-15T04:46:31;100417.63;;;4.79;84.96
42003;BME280;27693;50.506;30.832;2022-11-15T04:47:52;100420.83;;;4.98;84.80
42003;BME280;27693;50.506;30.832;2022-11-15T04:49:13;100423.41;;;4.98;83.81
42003;BME280;27693;50.506;30.832;2022-11-15T04:50:33;100420.02;;;4.94;83.39
42003;BME280;27693;50.506;30.832;2022-11-15T04:51:54;100424.40;;;4.88;83.11
42003;BME280;27693;50.506;30.832;2022-11-15T04:53:14;100422.62;;;4.93;84.23
42003;BME280;27693;50.506;30.832;2022-11-15T04:54:35;100419.97;;;4.99;84.22
42003;BME280;27693;50.506;30.832;2022-11-15T04:55:55;100416.49;;;5.02;84.03
42003;BME280;27693;50.506;30.832;2022-11-15T04:57:16;100416.62;;;4.92;82.98
42003;BME280;27693;50.506;30.832;2022-11-15T04:58:37;100411.55;;;4.83;83.04
42003;BME280;27693;50.506;30.832;2022-11-15T04:59:57;100411.78;;;4.61;82.60
42003;BME280;27693;50.506;30.832;2022-11-15T05:01:18;100406.61;;;4.64;83.41
42003;BME280;27693;50.506;30.832;2022-11-15T05:02:40;100416.09;;;4.61;83.59
42003;BME280;27693;50.506;30.832;2022-11-15T05:04:02;100409.16;;;4.66;83.66
42003;BME280;27693;50.506;30.832;2022-11-15T05:05:24;100403.11;;;4.69;83.56
42003;BME280;27693;50.506;30.832;2022-11-15T05:06:50;100404.73;;;4.79;83.51
42003;BME280;27693;50.506;30.832;2022-11-15T05:08:11;100399.60;;;4.76;83.40
42003;BME280;27693;50.506;30.832;2022-11-15T05:09:32;100394.52;;;4.70;83.70
42003;BME280;27693;50.506;30.832;2022-11-15T05:10:53;100397.31;;;4.50;83.31
42003;BME280;27693;50.506;30.832;2022-11-15T05:12:13;100407.66;;;4.43;83.40
42003;BME280;27693;50.506;30.832;2022-11-15T05:13:34;100395.77;;;4.31;83.14
42003;BME280;27693;50.506;30.832;2022-11-15T05:14:54;100400.08;;;4.26;83.18
42003;BME280;27693;50.506;30.832;2022-11-15T05:16:15;100395.01;;;4.19;83.28
42003;BME280;27693;50.506;30.832;2022-11-15T05:17:36;100392.50;;;4.09;83.42
42003;BME280;27693;50.506;30.832;2022-11-15T05:18:56;100395.87;;;4.18;84.12
42003;BME280;27693;50.506;30.832;2022-11-15T05:20:17;100396.69;;;4.24;84.82
42003;BME280;27693;50.506;30.832;2022-11-15T05:21:38;100396.58;;;4.34;84.66
42003;BME280;27693;50.506;30.832;2022-11-15T05:22:59;100394.86;;;4.36;84.43
42003;BME280;27693;50.506;30.832;2022-11-15T05:24:21;100394.78;;;4.45;85.10
42003;BME280;27693;50.506;30.832;2022-11-15T05:25:41;100393.13;;;4.38;84.06
42003;BME280;27693;50.506;30.832;2022-11-15T05:27:02;100390.50;;;4.41;85.12
42003;BME280;27693;50.506;30.832;2022-11-15T05:28:22;100399.09;;;4.40;84.38
42003;BME280;27693;50.506;30.832;2022-11-15T05:29:43;100396.64;;;4.27;83.97
42003;BME280;27693;50.506;30.832;2022-11-15T05:31:09;100392.28;;;4.36;84.61
42003;BME280;27693;50.506;30.832;2022-11-15T05:32:30;100392.26;;;4.37;84.34
42003;BME280;27693;50.506;30.832;2022-11-15T05:33:51;100387.14;;;4.32;84.22
42003;BME280;27693;50.506;30.832;2022-11-15T05:35:29;100386.22;;;4.40;85.08
42003;BME280;27693;50.506;30.832;2022-11-15T05:36:48;100387.95;;;4.39;84.71
42003;BME280;27693;50.506;30.832;2022-11-15T05:38:09;100387.92;;;4.41;84.42
42003;BME280;27693;50.506;30.832;2022-11-15T05:39:30;100390.38;;;4.53;84.93
42003;BME280;27693;50.506;30.832;2022-11-15T05:40:50;100393.80;;;4.55;84.43
42003;BME280;27693;50.506;30.832;2022-11-15T05:42:13;100383.55;;;4.52;84.19
42003;BME280;27693;50.506;30.832;2022-11-15T05:43:36;100376.68;;;4.51;83.88
42003;BME280;27693;50.506;30.832;2022-11-15T05:44:58;100383.42;;;4.61;84.49
42003;BME280;27693;50.506;30.832;2022-11-15T05:46:20;100375.81;;;4.52;83.85
42003;BME280;27693;50.506;30.832;2022-11-15T05:47:41;100381.12;;;4.34;84.02
42003;BME280;27693;50.506;30.832;2022-11-15T05:49:03;100370.94;;;4.21;84.22
42003;BME280;27693;50.506;30.832;2022-11-15T05:50:26;100376.89;;;4.26;84.22
42003;BME280;27693;50.506;30.832;2022-11-15T05:51:48;100375.11;;;4.35;84.29
42003;BME280;27693;50.506;30.832;2022-11-15T05:53:12;100370.73;;;4.43;84.19
42003;BME280;27693;50.506;30.832;2022-11-15T05:54:36;100371.61;;;4.42;83.93
42003;BME280;27693;50.506;30.832;2022-11-15T05:55:57;100367.37;;;4.38;83.89
42003;BME280;27693;50.506;30.832;2022-11-15T05:57:19;100365.61;;;4.40;83.83
42003;BME280;27693;50.506;30.832;2022-11-15T05:58:41;100363.92;;;4.39;83.37
42003;BME280;27693;50.506;30.832;2022-11-15T06:00:04;100362.27;;;4.30;83.16
42003;BME280;27693;50.506;30.832;2022-11-15T06:01:25;100365.72;;;4.30;83.26
42003;BME280;27693;50.506;30.832;2022-11-15T06:02:46;100363.05;;;4.38;83.17
42003;BME280;27693;50.506;30.832;2022-11-15T06:04:07;100358.72;;;4.42;83.35
42003;BME280;27693;50.506;30.832;2022-11-15T06:05:27;100359.59;;;4.41;83.45
42003;BME280;27693;50.506;30.832;2022-11-15T06:06:49;100355.28;;;4.43;83.32
42003;BME280;27693;50.506;30.832;2022-11-15T06:08:09;100357.12;;;4.31;83.65
42003;BME280;27693;50.506;30.832;2022-11-15T06:09:30;100358.77;;;4.39;84.36
42003;BME280;27693;50.506;30.832;2022-11-15T06:10:52;100358.77;;;4.39;84.08
42003;BME280;27693;50.506;30.832;2022-11-15T06:12:13;100359.50;;;4.50;84.16
42003;BME280;27693;50.506;30.832;2022-11-15T06:13:34;100357.77;;;4.51;84.02
42003;BME280;27693;50.506;30.832;2022-11-15T06:14:56;100350.05;;;4.52;84.76
42003;BME280;27693;50.506;30.832;2022-11-15T06:16:17;100356.84;;;4.59;84.62
42003;BME280;27693;50.506;30.832;2022-11-15T06:17:38;100356.02;;;4.54;83.78
42003;BME280;27693;50.506;30.832;2022-11-15T06:18:58;100365.59;;;4.43;83.52
42003;BME280;27693;50.506;30.832;2022-11-15T06:20:19;100358.59;;;4.54;84.02
42003;BME280;27693;50.506;30.832;2022-11-15T06:21:39;100358.64;;;4.51;83.81
42003;BME280;27693;50.506;30.832;2022-11-15T06:23:01;100356.93;;;4.50;83.92
42003;BME280;27693;50.506;30.832;2022-11-15T06:24:23;100350.11;;;4.46;83.97
42003;BME280;27693;50.506;30.832;2022-11-15T06:25:45;100359.45;;;4.53;84.30
42003;BME280;27693;50.506;30.832;2022-11-15T06:27:06;100351.69;;;4.59;84.33
42003;BME280;27693;50.506;30.832;2022-11-15T06:28:31;100348.19;;;4.63;84.01
42003;BME280;27693;50.506;30.832;2022-11-15T06:29:52;100347.27;;;4.68;84.00
42003;BME280;27693;50.506;30.832;2022-11-15T06:31:13;100349.10;;;4.58;84.17
42003;BME280;27693;50.506;30.832;2022-11-15T06:32:33;100350.91;;;4.51;83.86
42003;BME280;27693;50.506;30.832;2022-11-15T06:33:54;100361.23;;;4.48;84.31
42003;BME280;27693;50.506;30.832;2022-11-15T06:35:15;100351.12;;;4.29;83.98
42003;BME280;27693;50.506;30.832;2022-11-15T06:36:37;100350.53;;;3.99;84.26
42003;BME280;27693;50.506;30.832;2022-11-15T06:38:03;100353.05;;;4.07;85.29
42003;BME280;27693;50.506;30.832;2022-11-15T06:39:25;100355.47;;;4.24;86.17
42003;BME280;27693;50.506;30.832;2022-11-15T06:40:46;100351.91;;;4.36;85.57
42003;BME280;27693;50.506;30.832;2022-11-15T06:42:08;100348.44;;;4.40;84.83
42003;BME280;27693;50.506;30.832;2022-11-15T06:43:28;100349.34;;;4.35;85.07
42003;BME280;27693;50.506;30.832;2022-11-15T06:44:49;100343.33;;;4.36;85.16
42003;BME280;27693;50.506;30.832;2022-11-15T06:46:10;100350.13;;;4.43;85.12
42003;BME280;27693;50.506;30.832;2022-11-15T06:47:30;100354.33;;;4.52;85.18
42003;BME280;27693;50.506;30.832;2022-11-15T06:48:52;100347.38;;;4.60;84.91
42003;BME280;27693;50.506;30.832;2022-11-15T06:50:13;100343.13;;;4.56;84.62
42003;BME280;27693;50.506;30.832;2022-11-15T06:51:33;100349.02;;;4.67;84.76
42003;BME280;27693;50.506;30.832;2022-11-15T06:52:54;100345.59;;;4.65;84.14
42003;BME280;27693;50.506;30.832;2022-11-15T06:54:15;100344.75;;;4.64;84.29
42003;BME280;27693;50.506;30.832;2022-11-15T06:55:35;100340.43;;;4.65;83.92
42003;BME280;27693;50.506;30.832;2022-11-15T06:56:56;100349.95;;;4.60;83.86
42003;BME280;27693;50.506;30.832;2022-11-15T06:58:17;100340.44;;;4.67;84.11
42003;BME280;27693;50.506;30.832;2022-11-15T06:59:38;100346.39;;;4.72;84.18
42003;BME280;27693;50.506;30.832;2022-11-15T07:01:03;100346.55;;;4.56;84.35
42003;BME280;27693;50.506;30.832;2022-11-15T07:02:23;100335.56;;;4.40;84.36
42003;BME280;27693;50.506;30.832;2022-11-15T07:03:45;100334.60;;;4.49;84.73
42003;BME280;27693;50.506;30.832;2022-11-15T07:05:06;100333.69;;;4.53;84.83
42003;BME280;27693;50.506;30.832;2022-11-15T07:06:26;100333.69;;;4.55;85.03
42003;BME280;27693;50.506;30.832;2022-11-15T07:07:54;100336.27;;;4.53;84.74
42003;BME280;27693;50.506;30.832;2022-11-15T07:09:15;100336.24;;;4.56;84.55
42003;BME280;27693;50.506;30.832;2022-11-15T07:10:35;100341.47;;;4.50;84.76
42003;BME280;27693;50.506;30.832;2022-11-15T07:11:56;100345.11;;;4.30;84.12
42003;BME280;27693;50.506;30.832;2022-11-15T07:13:16;100338.18;;;4.36;84.66
42003;BME280;27693;50.506;30.832;2022-11-15T07:14:38;100331.34;;;4.33;84.35
42003;BME280;27693;50.506;30.832;2022-11-15T07:16:09;100332.31;;;4.21;84.01
42003;BME280;27693;50.506;30.832;2022-11-15T07:17:26;100336.53;;;4.28;84.51
42003;BME280;27693;50.506;30.832;2022-11-15T07:18:46;100335.67;;;4.29;84.60
42003;BME280;27693;50.506;30.832;2022-11-15T07:20:08;100323.80;;;4.14;83.80
42003;BME280;27693;50.506;30.832;2022-11-15T07:21:29;100325.45;;;4.20;84.39
42003;BME280;27693;50.506;30.832;2022-11-15T07:22:50;100331.38;;;4.28;84.19
42003;BME280;27693;50.506;30.832;2022-11-15T07:24:11;100334.82;;;4.27;83.80
42003;BME280;27693;50.506;30.832;2022-11-15T07:25:31;100325.50;;;4.17;84.27
42003;BME280;27693;50.506;30.832;2022-11-15T07:26:52;100328.27;;;3.95;83.95
42003;BME280;27693;50.506;30.832;2022-11-15T07:28:12;100330.78;;;4.02;84.64
42003;BME280;27693;50.506;30.832;2022-11-15T07:29:33;100326.48;;;4.04;84.42
42003;BME280;27693;50.506;30.832;2022-11-15T07:30:55;100326.42;;;4.10;84.25
42003;BME280;27693;50.506;30.832;2022-11-15T07:32:15;100319.62;;;4.03;83.66
42003;BME280;27693;50.506;30.832;2022-11-15T07:33:35;100314.42;;;4.06;83.63
42003;BME280;27693;50.506;30.832;2022-11-15T07:34:56;100318.02;;;3.89;83.85
42003;BME280;27693;50.506;30.832;2022-11-15T07:36:17;100326.62;;;3.85;83.97
42003;BME280;27693;50.506;30.832;2022-11-15T07:37:37;100316.39;;;3.80;84.09
42003;BME280;27693;50.506;30.832;2022-11-15T07:38:58;100312.92;;;3.81;84.08
42003;BME280;27693;50.506;30.832;2022-11-15T07:40:18;100305.19;;;3.84;84.75
42003;BME280;27693;50.506;30.832;2022-11-15T07:41:38;100306.90;;;3.86;84.22
42003;BME280;27693;50.506;30.832;2022-11-15T07:43:00;100310.30;;;3.89;84.16